Station info - map view · info · telemetry · weather · raw · status · beacons · messages · bulletins · browse · moving · my account
Callsign, ship name or locator: Clear       
It is possible to search using wildcards (*?) after a prefix. Example: OH*
APRS station JJ0RBC-7 - show graphs
Map loading...
Mic-E message: Off duty
Location: 36°11.61' N 137°56.23' E - locator PM86XE26LK - show map - static map
3.2 miles Southwest bearing 211° from Matsumoto, Nagano, Japan [?]
6.7 miles North bearing 346° from Shiojiri, Nagano, Japan
84.7 miles Northeast bearing 51° from Gifu-shi, Gifu, Japan
90.7 miles Northeast bearing 39° from Nagoya-shi, Aichi, Japan
Last position: 2017-09-06 19:41:11 EDT (16d 44m ago)
2017-09-07 08:41:11 JST local time at Matsumoto, Japan [?]
Altitude: 1998 ft
Course:
Device: Yaesu: VX-8 (ht)
Last path: JJ0RBC-7>SVQQV1 via WIDE1-1,WIDE2-1,qAR,JA0ZJX-10 (good)
Positions stored: 380
Other SSIDs: JJ0RBC-9 JJ0RBC-A
Stations near current position of JJ0RBC-7 - show more
callsign distance last heard - EDT      callsign distance last heard - EDT
JJ0RBC-90.9 miles 200°2017-09-20 21:57:30 JJ0QUU-91.3 miles 12°2017-09-17 02:16:58
JA0ZJX-I1.7 miles 95°2017-09-22 20:05:37 JA0ZJX-101.7 miles 95°2017-09-22 20:03:17
WIR-154921.7 miles 96°2017-09-22 20:03:43 JH0HYX-91.7 miles 96°2017-09-19 03:44:51
JH0HYX-131.7 miles 95°2017-09-22 20:24:04 EL-5481801.7 miles 95°2017-09-22 20:03:39
JH0HYX-101.7 miles 95°2017-09-22 19:46:58 JH0HYX-11.7 miles 96°2017-09-22 19:46:58
JH0UUG-72.1 miles 63°2017-08-27 03:02:41 JE0TGT-52.2 miles 19°2017-09-13 12:47:48
JR0UDH-i3.7 miles 226°2017-09-19 22:03:35 JE0TGT-123.9 miles 44°2017-09-16 09:51:28
JF0WBW-94.6 miles 318°2017-08-27 06:12:00 JG1LKT4.6 miles 358°2017-09-21 16:11:53
JJ1JLK-95.1 miles 24°2017-09-21 10:28:43 JK1FZR-77.7 miles 334°2017-09-22 20:13:12
JR0VLB8.1 miles 329°2017-09-22 04:44:05 JJ0RYN9.8 miles 77°2017-09-18 03:22:26
Stations which heard JJ0RBC-7 directly on radio –
callsign pkts first heard - EDT last heard longest (tx => rx) longest at - EDT
JA1KWV-1 1 2017-09-05 15:54:01 2017-09-05 15:54:01 PM95TQ > PM95TR 3.0 miles 35° 2017-09-05 15:54:01
JA1YKX-1 8 2017-09-05 15:42:33 2017-09-05 19:06:49 PM95RP > PM95SM 12.2 miles 152° 2017-09-05 15:42:33
JH0YNV-1 11 2017-09-05 02:30:11 2017-09-06 01:51:45 PM96AB > PM86WJ 26.8 miles 339° 2017-09-06 01:07:43
JJ1YDX-3 1 2017-09-05 15:53:24 2017-09-05 15:53:24 PM95TQ > QM06BF 47.5 miles 38° 2017-09-05 15:53:24
JI1FPY-6 3 2017-09-05 16:13:50 2017-09-05 16:56:08 PM95TO > PM95TM 5.4 miles 166° 2017-09-05 16:13:50
JA0ZJX-10 42 2017-09-05 01:00:33 2017-09-06 19:41:11 PM96AA > PM86XE 12.9 miles 331° 2017-09-06 01:02:05
JG1DUW-1 1 2017-09-05 17:02:04 2017-09-05 17:02:04 PM95UO > PM95UP 2.3 miles 24° 2017-09-05 17:02:04
JM1YTY-3 12 2017-09-05 10:53:58 2017-09-05 20:39:53 PM95NO > PM95WC 54.6 miles 131° 2017-09-05 10:53:58
JA1YFL-10 29 2017-09-05 06:53:08 2017-09-05 23:11:30 PM95ES > PM95GQ 10.9 miles 120° 2017-09-05 07:53:13
JR4ENY-1 8 2017-09-05 17:01:29 2017-09-05 19:39:09 PM95UO > PM95SN 6.1 miles 248° 2017-09-05 17:01:29
JM1YTU-3 2 2017-09-05 10:53:24 2017-09-05 20:36:55 PM95NO > QM05CL 60.1 miles 100° 2017-09-05 10:53:24
JO1YLU-3 1 2017-09-05 15:39:11 2017-09-05 15:39:11 PM95QQ > PM95XG 42.3 miles 133° 2017-09-05 15:39:11
JH0WJE-10 9 2017-09-05 01:02:41 2017-09-06 01:41:39 PM86XD > PM86WI 15.8 miles 342° 2017-09-06 01:41:39
JN1ZOG-15 2 2017-09-05 15:54:05 2017-09-05 16:05:52 PM95TQ > PM95TR 4.4 miles 35° 2017-09-05 16:05:52
7J1YAK-1 2 2017-09-05 20:56:27 2017-09-05 21:05:35 PM95LO > PM95JL 13.9 miles 230° 2017-09-05 20:56:27
JK6FAA-10 1 2017-09-05 16:13:50 2017-09-05 16:13:50 PM95TO > PM95TO 1.8 miles 220° 2017-09-05 16:13:50
JG0BGW-1 5 2017-09-05 04:53:10 2017-09-06 01:33:12 PM86XC > PM96AA 7.4 miles 155° 2017-09-06 01:33:12
JH0YKS-1 7 2017-09-05 01:31:20 2017-09-06 01:47:04 PM86XC > PM86WO 34.8 miles 350° 2017-09-06 01:30:38
JR0CST-10 29 2017-09-05 04:55:03 2017-09-06 01:22:29 PM96AC > PM95CX 10.7 miles 126° 2017-09-06 01:22:29

Only position packets which were originated by the station are shown here. The range statistics show some extra long hops, because some digipeaters do not correctly add themselves to the digipeater path. Please check the raw packets.
About this site
This page shows real-time information collected from the Automatic Position Reporting System Internet network (APRS-IS). APRS is used by amateur (ham) radio operators to transmit real-time position information, weather data, telemetry and messages over the radio. A vehicle equipped with a GPS receiver, a VHF transmitter or HF transceiver and a small computer device called a tracker transmits it's location, speed and course in a small data packet, which is then received by a nearby iGate receiving site which forwards the packet on the Internet. Systems connected to the Internet can send information on the APRS-IS without a radio transmitter, or collect and display information transmitted anywhere in the world.
FAQ · Blog · Discussion group · Linking to aprs.fi · AIS sites · Service status · Database statistics · Advertising on aprs.fi · Technical details · API · Change log · Planned changes · Credits and thanks · Terms Of Service · iPhone/iPad APRS